createdAt,value
2018-03-29T00:00:42.623Z,3.80
2018-03-29T00:03:10.227Z,3.80
2018-03-29T00:05:38.623Z,3.80
2018-03-29T00:08:07.014Z,3.80
2018-03-29T00:10:35.433Z,3.70
2018-03-29T00:13:02.998Z,3.70
2018-03-29T00:15:30.784Z,3.80
2018-03-29T00:17:58.624Z,3.80
2018-03-29T00:20:26.235Z,3.70
2018-03-29T00:22:54.999Z,3.80
2018-03-29T00:25:22.676Z,3.70
2018-03-29T00:27:50.259Z,3.70
2018-03-29T00:30:18.584Z,3.60
2018-03-29T00:32:46.197Z,3.60
2018-03-29T00:35:14.525Z,3.70
2018-03-29T00:37:42.118Z,3.70
2018-03-29T00:40:10.501Z,3.70
2018-03-29T00:42:38.863Z,3.70
2018-03-29T00:45:06.459Z,3.70
2018-03-29T00:47:34.654Z,3.70
2018-03-29T00:50:02.309Z,3.70
2018-03-29T00:52:29.883Z,3.70
2018-03-29T00:54:57.749Z,3.70
2018-03-29T00:57:25.372Z,3.70
2018-03-29T00:59:52.936Z,3.80
2018-03-29T01:02:20.537Z,3.70
2018-03-29T01:04:48.123Z,3.70
2018-03-29T01:07:15.916Z,3.70
2018-03-29T01:09:43.508Z,3.70
2018-03-29T01:12:11.074Z,3.70
2018-03-29T01:14:38.674Z,3.70
2018-03-29T01:17:07.018Z,3.80
2018-03-29T01:19:34.626Z,3.70
2018-03-29T01:22:03.131Z,3.80
2018-03-29T01:24:30.762Z,3.80
2018-03-29T01:26:59.132Z,3.90
2018-03-29T01:29:27.474Z,3.90
2018-03-29T01:31:55.071Z,3.90
2018-03-29T01:34:23.421Z,3.90
2018-03-29T01:36:51.031Z,3.90
2018-03-29T01:39:18.666Z,3.90
2018-03-29T01:41:47.013Z,3.90
2018-03-29T01:44:14.604Z,3.90
2018-03-29T01:46:42.991Z,4.00
2018-03-29T01:49:11.594Z,4.00
2018-03-29T01:51:39.265Z,4.00
2018-03-29T01:54:06.849Z,4.00
2018-03-29T01:56:34.419Z,4.10
2018-03-29T01:59:02.048Z,4.10
2018-03-29T02:01:29.646Z,4.10
2018-03-29T02:03:57.244Z,4.10
2018-03-29T02:06:24.862Z,4.10
2018-03-29T02:08:52.444Z,4.10
2018-03-29T02:11:20.803Z,4.10
2018-03-29T02:13:48.441Z,4.00
2018-03-29T02:16:16.272Z,4.00
2018-03-29T02:18:43.845Z,4.00
2018-03-29T02:21:11.424Z,4.00
2018-03-29T02:23:39.049Z,4.00
2018-03-29T02:26:06.629Z,4.00
2018-03-29T02:28:34.195Z,4.00
2018-03-29T02:31:02.081Z,3.90
2018-03-29T02:33:29.661Z,4.00
2018-03-29T02:35:57.244Z,4.00
2018-03-29T02:38:24.849Z,3.90
2018-03-29T02:40:52.699Z,3.90
2018-03-29T02:43:20.341Z,3.90
2018-03-29T02:45:48.072Z,3.90
2018-03-29T02:48:16.474Z,3.90
2018-03-29T02:50:44.062Z,3.80
2018-03-29T02:53:11.672Z,3.80
2018-03-29T02:55:39.996Z,3.70
2018-03-29T02:58:07.566Z,3.70
2018-03-29T03:00:36.664Z,3.70
2018-03-29T03:03:04.272Z,3.70
2018-03-29T03:05:32.611Z,3.70
2018-03-29T03:08:00.262Z,3.70
2018-03-29T03:10:27.888Z,3.70
2018-03-29T03:12:56.048Z,3.70
2018-03-29T03:15:24.553Z,3.60
2018-03-29T03:17:52.202Z,3.60
2018-03-29T03:20:19.785Z,3.60
2018-03-29T03:22:47.405Z,3.60
2018-03-29T03:25:15.754Z,3.60
2018-03-29T03:27:43.405Z,3.60
2018-03-29T03:30:11.023Z,3.60
2018-03-29T03:32:38.603Z,3.60
2018-03-29T03:35:06.274Z,3.60
2018-03-29T03:37:34.319Z,3.60
2018-03-29T03:40:01.945Z,3.60
2018-03-29T03:42:30.295Z,3.60
2018-03-29T03:44:57.861Z,3.70
2018-03-29T03:47:25.518Z,3.70
2018-03-29T03:49:53.117Z,3.70
2018-03-29T03:52:21.282Z,3.70
2018-03-29T03:54:49.678Z,3.70
2018-03-29T03:57:17.368Z,3.70
2018-03-29T03:59:44.963Z,3.60
2018-03-29T04:02:12.535Z,3.60
2018-03-29T04:04:40.900Z,3.60
2018-03-29T04:07:08.494Z,3.60
2018-03-29T04:09:36.679Z,3.60
2018-03-29T04:12:04.304Z,3.60
2018-03-29T04:14:32.647Z,3.70
2018-03-29T04:17:00.281Z,3.70
2018-03-29T04:19:27.870Z,3.80
2018-03-29T04:21:55.534Z,3.80
2018-03-29T04:24:23.132Z,3.80
2018-03-29T04:26:52.083Z,3.80
2018-03-29T04:29:19.721Z,3.80
2018-03-29T04:31:47.896Z,3.80
2018-03-29T04:34:15.511Z,3.90
2018-03-29T04:36:43.912Z,3.90
2018-03-29T04:39:11.501Z,3.90
2018-03-29T04:41:39.079Z,3.90
2018-03-29T04:44:06.914Z,3.90
2018-03-29T04:46:34.507Z,3.90
2018-03-29T04:49:02.124Z,3.90
2018-03-29T04:51:29.729Z,3.90
2018-03-29T04:53:57.676Z,3.90
2018-03-29T04:56:25.326Z,3.90
2018-03-29T04:58:53.323Z,3.90
2018-03-29T05:01:20.951Z,3.90
2018-03-29T05:03:48.821Z,4.00
2018-03-29T05:06:17.320Z,4.00
2018-03-29T05:08:44.947Z,4.00
2018-03-29T05:11:12.555Z,4.00
2018-03-29T05:13:40.126Z,4.10
2018-03-29T05:16:08.620Z,4.10
2018-03-29T05:18:36.984Z,4.10
2018-03-29T05:21:04.709Z,4.00
2018-03-29T05:23:32.329Z,4.10
2018-03-29T05:26:05.737Z,4.10
2018-03-29T05:28:33.330Z,4.10
2018-03-29T05:31:01.070Z,4.10
2018-03-29T05:33:29.202Z,4.10
2018-03-29T05:35:56.814Z,4.10
2018-03-29T05:38:24.452Z,4.10
2018-03-29T05:40:52.039Z,4.10
2018-03-29T05:43:19.610Z,4.20
2018-03-29T05:45:47.913Z,4.20
2018-03-29T05:48:15.485Z,4.20
2018-03-29T05:50:43.882Z,4.30
2018-03-29T05:53:11.440Z,4.20
2018-03-29T05:55:39.848Z,4.30
2018-03-29T05:58:07.458Z,4.30
2018-03-29T06:00:35.818Z,4.30
2018-03-29T06:03:03.485Z,4.30
2018-03-29T06:05:31.844Z,4.40
2018-03-29T06:08:12.175Z,4.30
2018-03-29T06:10:58.162Z,4.40
2018-03-29T06:13:25.756Z,4.50
2018-03-29T06:15:59.086Z,4.50
2018-03-29T06:21:11.036Z,4.60
2018-03-29T06:23:43.990Z,4.60
2018-03-29T06:26:12.362Z,4.70
2018-03-29T06:28:40.746Z,4.70
2018-03-29T06:31:09.748Z,4.70
2018-03-29T06:33:37.361Z,4.70
2018-03-29T06:36:04.986Z,4.70
2018-03-29T06:38:32.558Z,4.80
2018-03-29T06:41:00.636Z,4.80
2018-03-29T06:43:28.232Z,4.90
2018-03-29T06:45:57.080Z,4.90
2018-03-29T06:48:24.652Z,4.90
2018-03-29T06:50:52.292Z,5.00
2018-03-29T06:53:19.850Z,5.00
2018-03-29T06:55:47.485Z,5.10
2018-03-29T06:58:15.064Z,5.10
2018-03-29T07:00:42.767Z,5.10
2018-03-29T07:03:10.366Z,5.10
2018-03-29T07:05:37.996Z,5.20
2018-03-29T07:08:06.329Z,5.30
2018-03-29T07:10:33.912Z,5.20
2018-03-29T07:13:01.501Z,5.30
2018-03-29T07:15:29.971Z,5.50
2018-03-29T07:17:57.532Z,5.50
2018-03-29T07:20:25.192Z,5.50
2018-03-29T07:22:53.329Z,5.50
2018-03-29T07:25:20.977Z,5.60
2018-03-29T07:27:48.603Z,5.60
2018-03-29T07:30:16.974Z,5.70
2018-03-29T07:32:45.313Z,5.80
2018-03-29T07:35:12.904Z,5.70
2018-03-29T07:37:41.330Z,5.90
2018-03-29T07:40:08.907Z,5.90
2018-03-29T07:42:36.506Z,6.00
2018-03-29T07:45:04.125Z,6.10
2018-03-29T07:47:31.762Z,6.30
2018-03-29T07:49:59.542Z,6.40
2018-03-29T07:52:27.160Z,6.40
2018-03-29T07:54:55.599Z,6.80
2018-03-29T07:57:23.167Z,6.90
2018-03-29T07:59:50.756Z,7.10
2018-03-29T08:02:19.090Z,8.40
2018-03-29T08:04:46.698Z,8.40
2018-03-29T08:07:15.339Z,9.30
2018-03-29T08:09:43.087Z,9.20
2018-03-29T08:12:11.582Z,9.00
2018-03-29T08:14:39.160Z,9.10
2018-03-29T08:17:06.752Z,9.40
2018-03-29T08:19:35.178Z,8.90
2018-03-29T08:22:02.774Z,8.80
2018-03-29T08:24:31.777Z,8.80
2018-03-29T08:26:59.259Z,8.80
2018-03-29T08:29:26.934Z,8.80
2018-03-29T08:31:54.532Z,8.90
2018-03-29T08:34:22.097Z,8.90
2018-03-29T08:36:49.715Z,8.80
2018-03-29T08:39:17.281Z,8.70
2018-03-29T08:41:44.942Z,8.80
2018-03-29T08:44:12.486Z,8.80
2018-03-29T08:46:40.163Z,8.80
2018-03-29T08:49:07.762Z,8.70
2018-03-29T08:51:36.082Z,8.80
2018-03-29T08:54:03.645Z,8.70
2018-03-29T08:56:31.267Z,8.70
2018-03-29T08:58:59.584Z,8.80
2018-03-29T09:01:27.176Z,8.70
2018-03-29T09:03:54.737Z,8.70
2018-03-29T09:06:22.321Z,8.80
2018-03-29T09:08:50.685Z,8.80
2018-03-29T09:11:18.275Z,8.70
2018-03-29T09:13:45.855Z,8.80
2018-03-29T09:16:13.444Z,8.70
2018-03-29T09:18:41.176Z,8.70
2018-03-29T09:21:08.727Z,8.80
2018-03-29T09:23:36.289Z,8.90
2018-03-29T09:26:04.519Z,9.10
2018-03-29T09:28:32.104Z,9.20
2018-03-29T09:30:59.694Z,9.30
2018-03-29T09:33:27.283Z,9.40
2018-03-29T09:35:54.853Z,9.50
2018-03-29T09:38:22.459Z,9.50
2018-03-29T09:40:50.078Z,9.50
2018-03-29T09:43:17.640Z,9.40
2018-03-29T09:45:45.985Z,9.60
2018-03-29T09:48:13.542Z,9.60
2018-03-29T09:50:41.209Z,9.70
2018-03-29T09:53:08.755Z,9.60
2018-03-29T09:55:36.574Z,9.60
2018-03-29T09:58:04.900Z,9.50
2018-03-29T10:00:35.494Z,9.50
2018-03-29T10:03:08.761Z,9.50
2018-03-29T10:05:37.923Z,9.40
2018-03-29T10:08:05.507Z,9.40
2018-03-29T10:10:33.859Z,9.30
2018-03-29T10:13:01.458Z,9.20
2018-03-29T10:15:29.878Z,9.10
2018-03-29T10:17:57.450Z,9.10
2018-03-29T10:20:25.303Z,9.10
2018-03-29T10:22:52.963Z,9.20
2018-03-29T10:25:20.537Z,9.20
2018-03-29T10:27:48.193Z,9.20
2018-03-29T10:30:15.769Z,9.30
2018-03-29T10:32:43.334Z,9.30
2018-03-29T10:35:11.045Z,9.40
2018-03-29T10:37:38.599Z,9.40
2018-03-29T10:40:06.945Z,9.30
2018-03-29T10:42:36.036Z,9.20
2018-03-29T10:45:03.588Z,9.20
2018-03-29T10:47:31.874Z,9.20
2018-03-29T10:49:59.431Z,9.30
2018-03-29T10:52:27.092Z,9.40
2018-03-29T10:54:55.132Z,9.40
2018-03-29T10:57:22.736Z,9.50
2018-03-29T10:59:51.137Z,9.50
2018-03-29T11:02:18.701Z,9.50
2018-03-29T11:04:46.287Z,9.50
2018-03-29T11:07:13.883Z,9.50
2018-03-29T11:09:41.448Z,9.60
2018-03-29T11:12:09.855Z,9.80
2018-03-29T11:14:37.465Z,9.70
2018-03-29T11:17:05.026Z,9.80
2018-03-29T11:19:32.782Z,10.00
2018-03-29T11:22:00.428Z,10.20
2018-03-29T11:24:28.506Z,10.40
2018-03-29T11:26:56.073Z,10.50
2018-03-29T11:29:25.223Z,10.60
2018-03-29T11:31:52.789Z,10.60
2018-03-29T11:34:20.577Z,10.50
2018-03-29T11:36:48.180Z,10.30
2018-03-29T11:39:16.501Z,9.60
2018-03-29T11:41:44.281Z,9.60
2018-03-29T11:44:13.709Z,9.20
2018-03-29T11:46:42.252Z,9.00
2018-03-29T11:49:09.887Z,8.80
2018-03-29T11:51:37.447Z,8.60
2018-03-29T11:54:05.114Z,8.70
2018-03-29T11:56:32.790Z,8.60
2018-03-29T11:59:00.390Z,8.20
2018-03-29T12:01:27.965Z,8.20
2018-03-29T12:03:56.320Z,8.10
2018-03-29T12:06:24.154Z,8.10
2018-03-29T12:08:51.784Z,8.20
2018-03-29T12:11:20.156Z,8.30
2018-03-29T12:13:48.530Z,8.30
2018-03-29T12:16:16.888Z,8.50
2018-03-29T12:18:44.462Z,8.50
2018-03-29T12:21:12.841Z,8.50
2018-03-29T12:23:41.298Z,8.50
2018-03-29T12:26:09.790Z,8.50
2018-03-29T12:28:38.898Z,8.30
2018-03-29T12:31:07.232Z,8.40
2018-03-29T12:33:35.010Z,8.40
2018-03-29T12:36:02.747Z,8.30
2018-03-29T12:38:30.919Z,8.20
2018-03-29T12:40:58.534Z,8.10
2018-03-29T12:43:26.142Z,8.20
2018-03-29T12:45:53.725Z,8.30
2018-03-29T12:48:21.305Z,8.30
2018-03-29T12:50:49.006Z,8.30
2018-03-29T12:53:16.626Z,8.40
2018-03-29T12:55:44.233Z,8.30
2018-03-29T12:58:11.808Z,8.30
2018-03-29T13:00:39.398Z,8.30
2018-03-29T13:03:07.028Z,8.30
2018-03-29T13:05:34.623Z,8.30
2018-03-29T13:08:02.196Z,8.20
2018-03-29T13:10:30.881Z,8.00
2018-03-29T13:12:59.239Z,8.00
2018-03-29T13:15:26.927Z,8.00
2018-03-29T13:17:54.501Z,8.00
2018-03-29T13:20:22.061Z,8.20
2018-03-29T13:22:49.689Z,8.50
2018-03-29T13:25:17.315Z,8.80
2018-03-29T13:27:44.884Z,9.10
2018-03-29T13:30:12.604Z,9.20
2018-03-29T13:32:40.157Z,9.20
2018-03-29T13:35:07.708Z,9.30
2018-03-29T13:37:36.051Z,9.10
2018-03-29T13:40:03.654Z,9.10
2018-03-29T13:42:31.233Z,9.10
2018-03-29T13:44:58.820Z,9.10
2018-03-29T13:47:26.417Z,9.10
2018-03-29T13:49:54.758Z,9.10
2018-03-29T13:52:22.380Z,9.10
2018-03-29T13:54:50.274Z,9.20
2018-03-29T13:57:17.937Z,9.40
2018-03-29T13:59:45.511Z,9.40
2018-03-29T14:02:13.070Z,9.40
2018-03-29T14:04:40.647Z,9.50
2018-03-29T14:07:08.189Z,9.70
2018-03-29T14:09:36.109Z,9.80
2018-03-29T14:12:03.685Z,9.70
2018-03-29T14:14:31.254Z,9.70
2018-03-29T14:16:59.010Z,9.60
2018-03-29T14:19:26.633Z,9.60
2018-03-29T14:21:55.029Z,9.70
2018-03-29T14:24:22.684Z,9.70
2018-03-29T14:26:50.293Z,9.80
2018-03-29T14:29:17.852Z,9.80
2018-03-29T14:31:45.411Z,9.70
2018-03-29T14:34:13.049Z,9.80
2018-03-29T14:36:40.616Z,9.90
2018-03-29T14:39:08.175Z,9.80
2018-03-29T14:41:35.788Z,9.70
2018-03-29T14:44:04.177Z,9.80
2018-03-29T14:46:31.740Z,9.70
2018-03-29T14:48:59.629Z,9.80
2018-03-29T14:51:27.993Z,9.90
2018-03-29T14:53:55.580Z,9.90
2018-03-29T14:56:23.905Z,9.80
2018-03-29T14:58:51.489Z,9.80
2018-03-29T15:01:19.078Z,9.80
2018-03-29T15:03:47.486Z,9.70
2018-03-29T15:06:15.065Z,9.70
2018-03-29T15:08:42.610Z,9.70
2018-03-29T15:11:10.209Z,9.60
2018-03-29T15:13:37.765Z,9.80
2018-03-29T15:16:05.328Z,9.90
2018-03-29T15:18:32.899Z,9.90
2018-03-29T15:21:00.461Z,10.00
2018-03-29T15:23:28.852Z,10.10
2018-03-29T15:25:57.185Z,10.20
2018-03-29T15:28:24.743Z,10.20
2018-03-29T15:30:52.331Z,10.20
2018-03-29T15:33:19.894Z,10.30
2018-03-29T15:35:47.508Z,10.40
2018-03-29T15:38:15.068Z,10.40
2018-03-29T15:40:42.631Z,10.30
2018-03-29T15:43:10.210Z,9.90
2018-03-29T15:45:37.746Z,9.80
2018-03-29T15:48:05.296Z,9.80
2018-03-29T15:50:32.862Z,9.90
2018-03-29T15:53:00.509Z,10.00
2018-03-29T15:55:28.055Z,10.00
2018-03-29T15:57:56.367Z,10.00
2018-03-29T16:00:23.950Z,10.00
2018-03-29T16:02:51.523Z,10.10
2018-03-29T16:05:19.116Z,10.10
2018-03-29T16:07:47.449Z,10.10
2018-03-29T16:10:15.004Z,10.00
2018-03-29T16:12:42.623Z,9.80
2018-03-29T16:15:10.940Z,9.80
2018-03-29T16:17:38.503Z,9.80
2018-03-29T16:20:06.057Z,9.50
2018-03-29T16:22:33.645Z,9.30
2018-03-29T16:25:01.201Z,9.30
2018-03-29T16:27:28.781Z,9.40
2018-03-29T16:29:56.362Z,9.50
2018-03-29T16:32:23.903Z,9.40
2018-03-29T16:34:52.305Z,9.30
2018-03-29T16:37:19.847Z,9.30
2018-03-29T16:39:47.447Z,9.30
2018-03-29T16:42:15.875Z,9.30
2018-03-29T16:44:43.456Z,9.30
2018-03-29T16:47:11.026Z,9.10
2018-03-29T16:49:39.220Z,9.10
2018-03-29T16:52:06.833Z,9.10
2018-03-29T16:54:34.420Z,9.10
2018-03-29T16:57:02.040Z,9.10
2018-03-29T16:59:29.589Z,8.90
2018-03-29T17:01:57.146Z,8.70
2018-03-29T17:04:24.740Z,8.60
2018-03-29T17:06:52.294Z,8.50
2018-03-29T17:09:20.670Z,8.50
2018-03-29T17:11:48.217Z,8.40
2018-03-29T17:14:15.781Z,8.40
2018-03-29T17:16:43.351Z,8.30
2018-03-29T17:19:11.659Z,8.40
2018-03-29T17:21:39.297Z,8.30
2018-03-29T17:24:06.849Z,8.30
2018-03-29T17:26:34.445Z,8.10
2018-03-29T17:29:02.065Z,8.30
2018-03-29T17:31:29.592Z,8.50
2018-03-29T17:33:57.185Z,8.40
2018-03-29T17:36:24.780Z,8.30
2018-03-29T17:38:52.339Z,8.30
2018-03-29T17:41:19.976Z,8.40
2018-03-29T17:43:47.564Z,8.30
2018-03-29T17:46:15.121Z,8.30
2018-03-29T17:48:42.683Z,8.30
2018-03-29T17:51:10.277Z,8.40
2018-03-29T17:53:37.856Z,8.20
2018-03-29T17:56:05.440Z,8.30
2018-03-29T17:58:33.776Z,8.40
2018-03-29T18:01:01.333Z,8.30
2018-03-29T18:03:28.981Z,8.30
2018-03-29T18:05:56.570Z,8.30
2018-03-29T18:08:24.122Z,8.40
2018-03-29T18:10:51.717Z,8.30
2018-03-29T18:13:20.040Z,8.40
2018-03-29T18:15:47.582Z,8.30
2018-03-29T18:18:15.195Z,8.30
2018-03-29T18:20:42.755Z,8.20
2018-03-29T18:23:10.309Z,8.20
2018-03-29T18:25:37.927Z,8.20
2018-03-29T18:28:05.516Z,8.30
2018-03-29T18:30:33.149Z,8.30
2018-03-29T18:33:00.726Z,8.30
2018-03-29T18:35:28.309Z,8.20
2018-03-29T18:37:55.903Z,8.20
2018-03-29T18:40:23.555Z,8.20
2018-03-29T18:42:51.149Z,8.30
2018-03-29T18:45:18.951Z,8.30
2018-03-29T18:47:46.536Z,8.20
2018-03-29T18:50:14.122Z,8.20
2018-03-29T18:52:42.474Z,8.20
2018-03-29T18:55:10.028Z,8.20
2018-03-29T18:57:37.629Z,8.20
2018-03-29T19:00:05.207Z,8.20
2018-03-29T19:02:32.755Z,8.20
2018-03-29T19:05:00.337Z,8.20
2018-03-29T19:07:27.915Z,8.10
2018-03-29T19:09:55.476Z,7.90
2018-03-29T19:12:23.079Z,7.90
2018-03-29T19:14:51.409Z,7.90
2018-03-29T19:17:19.058Z,7.80
2018-03-29T19:19:46.627Z,7.80
2018-03-29T19:22:14.206Z,7.80
2018-03-29T19:24:41.844Z,7.80
2018-03-29T19:27:09.420Z,7.80
2018-03-29T19:29:37.001Z,7.80
2018-03-29T19:32:05.378Z,7.70
2018-03-29T19:34:32.930Z,7.70
2018-03-29T19:37:00.734Z,7.70
2018-03-29T19:39:28.428Z,7.60
2018-03-29T19:41:55.979Z,7.70
2018-03-29T19:44:23.580Z,7.70
2018-03-29T19:46:51.210Z,7.70
2018-03-29T19:49:19.165Z,7.70
2018-03-29T19:51:46.754Z,7.60
2018-03-29T19:54:14.386Z,7.60
2018-03-29T19:56:42.774Z,7.60
2018-03-29T19:59:10.360Z,7.60
2018-03-29T20:01:38.000Z,7.50
2018-03-29T20:04:05.570Z,7.40
2018-03-29T20:06:33.604Z,7.40
2018-03-29T20:09:01.946Z,7.40
2018-03-29T20:11:31.003Z,7.10
2018-03-29T20:13:59.359Z,7.10
2018-03-29T20:16:29.214Z,7.00
2018-03-29T20:18:58.335Z,7.00
2018-03-29T20:21:26.403Z,7.00
2018-03-29T20:23:54.000Z,6.90
2018-03-29T20:26:21.627Z,7.00
2018-03-29T20:28:49.250Z,6.90
2018-03-29T20:31:16.768Z,6.90
2018-03-29T20:33:44.409Z,6.90
2018-03-29T20:36:11.984Z,6.90
2018-03-29T20:38:39.589Z,6.80
2018-03-29T20:41:07.204Z,6.80
2018-03-29T20:43:35.590Z,6.70
2018-03-29T20:46:03.970Z,6.70
2018-03-29T20:48:31.753Z,6.70
2018-03-29T20:50:59.335Z,6.70
2018-03-29T20:53:26.949Z,6.70
2018-03-29T20:55:55.390Z,6.60
2018-03-29T20:58:23.703Z,6.60
2018-03-29T21:00:52.077Z,6.60
2018-03-29T21:03:20.482Z,6.50
2018-03-29T21:05:48.145Z,6.50
2018-03-29T21:08:15.718Z,6.60
2018-03-29T21:10:43.273Z,6.60
2018-03-29T21:13:10.870Z,6.60
2018-03-29T21:15:38.429Z,6.60
2018-03-29T21:18:05.979Z,6.50
2018-03-29T21:20:33.576Z,6.50
2018-03-29T21:23:01.917Z,6.50
2018-03-29T21:25:29.556Z,6.50
2018-03-29T21:27:57.146Z,6.50
2018-03-29T21:30:24.705Z,6.60
2018-03-29T21:32:52.315Z,6.50
2018-03-29T21:35:19.908Z,6.50
2018-03-29T21:37:47.469Z,6.40
2018-03-29T21:40:15.061Z,6.40
2018-03-29T21:42:42.615Z,6.40
2018-03-29T21:45:10.234Z,6.40
2018-03-29T21:47:37.793Z,6.50
2018-03-29T21:50:05.366Z,6.40
2018-03-29T21:52:32.951Z,6.40
2018-03-29T21:55:00.525Z,6.50
2018-03-29T21:57:28.072Z,6.50
2018-03-29T21:59:55.659Z,6.50
2018-03-29T22:02:23.245Z,6.40
2018-03-29T22:04:50.813Z,6.30
2018-03-29T22:07:18.373Z,6.20
2018-03-29T22:09:45.951Z,6.30
2018-03-29T22:12:13.510Z,6.30
2018-03-29T22:14:41.079Z,6.30
2018-03-29T22:17:08.634Z,6.30
2018-03-29T22:19:36.247Z,6.30
2018-03-29T22:22:04.635Z,6.10
2018-03-29T22:24:32.987Z,6.20
2018-03-29T22:27:00.549Z,6.10
2018-03-29T22:29:28.144Z,6.10
2018-03-29T22:31:55.711Z,6.10
2018-03-29T22:34:23.335Z,6.20
2018-03-29T22:36:51.264Z,6.10
2018-03-29T22:39:18.827Z,6.20
2018-03-29T22:41:46.376Z,6.20
2018-03-29T22:44:13.959Z,6.20
2018-03-29T22:46:41.521Z,6.20
2018-03-29T22:49:09.123Z,6.10
2018-03-29T22:51:37.465Z,6.10
2018-03-29T22:54:05.029Z,6.10
2018-03-29T22:56:32.624Z,6.10
2018-03-29T22:59:00.231Z,6.10
2018-03-29T23:01:27.878Z,6.10
2018-03-29T23:03:56.212Z,5.80
2018-03-29T23:06:23.845Z,5.80
2018-03-29T23:08:52.024Z,5.90
2018-03-29T23:11:19.566Z,5.80
2018-03-29T23:13:47.140Z,5.80
2018-03-29T23:16:14.715Z,5.90
2018-03-29T23:18:42.311Z,6.00
2018-03-29T23:21:09.878Z,6.00
2018-03-29T23:23:37.837Z,6.00
2018-03-29T23:26:05.397Z,5.90
2018-03-29T23:28:32.949Z,5.70
2018-03-29T23:31:00.748Z,5.40
2018-03-29T23:33:28.330Z,5.30
2018-03-29T23:35:55.922Z,5.20
2018-03-29T23:38:23.537Z,5.30
2018-03-29T23:40:51.170Z,5.30
2018-03-29T23:43:18.728Z,5.20
2018-03-29T23:45:46.334Z,5.10
2018-03-29T23:48:13.907Z,5.10
2018-03-29T23:50:41.460Z,5.30
2018-03-29T23:53:09.093Z,5.40
2018-03-29T23:55:36.652Z,5.30
2018-03-29T23:58:19.022Z,5.40
